sensor_id;sensor_type;location;lat;lon;timestamp;temperature;humidity
52267;DHT22;38223;50.940;4.034;2022-07-22T00:01:14;18.10;99.90
52267;DHT22;38223;50.940;4.034;2022-07-22T00:03:45;18.10;99.90
52267;DHT22;38223;50.940;4.034;2022-07-22T00:06:18;18.10;99.90
52267;DHT22;38223;50.940;4.034;2022-07-22T00:08:46;18.00;99.90
52267;DHT22;38223;50.940;4.034;2022-07-22T00:11:17;17.90;99.90
52267;DHT22;38223;50.940;4.034;2022-07-22T00:13:59;18.00;99.90
52267;DHT22;38223;50.940;4.034;2022-07-22T00:16:31;18.10;99.90
52267;DHT22;38223;50.940;4.034;2022-07-22T00:19:09;18.10;99.90
52267;DHT22;38223;50.940;4.034;2022-07-22T00:21:43;18.20;99.90
52267;DHT22;38223;50.940;4.034;2022-07-22T00:24:18;18.20;99.90
52267;DHT22;38223;50.940;4.034;2022-07-22T00:26:48;18.10;99.90
52267;DHT22;38223;50.940;4.034;2022-07-22T00:29:22;18.00;99.90
52267;DHT22;38223;50.940;4.034;2022-07-22T00:31:55;18.00;99.90
52267;DHT22;38223;50.940;4.034;2022-07-22T00:34:27;18.00;99.90
52267;DHT22;38223;50.940;4.034;2022-07-22T00:37:01;18.00;99.90
52267;DHT22;38223;50.940;4.034;2022-07-22T00:39:34;18.00;99.90
52267;DHT22;38223;50.940;4.034;2022-07-22T00:42:08;18.00;99.90
52267;DHT22;38223;50.940;4.034;2022-07-22T00:44:41;18.00;99.90
52267;DHT22;38223;50.940;4.034;2022-07-22T00:47:12;18.00;99.90
52267;DHT22;38223;50.940;4.034;2022-07-22T00:49:45;18.00;99.90
52267;DHT22;38223;50.940;4.034;2022-07-22T00:52:20;18.00;99.90
52267;DHT22;38223;50.940;4.034;2022-07-22T00:54:58;17.90;99.90
52267;DHT22;38223;50.940;4.034;2022-07-22T00:57:28;18.00;99.90
52267;DHT22;38223;50.940;4.034;2022-07-22T01:00:02;18.00;99.90
52267;DHT22;38223;50.940;4.034;2022-07-22T01:02:34;17.70;99.90
52267;DHT22;38223;50.940;4.034;2022-07-22T01:05:07;17.70;99.90
52267;DHT22;38223;50.940;4.034;2022-07-22T01:07:41;17.60;99.90
52267;DHT22;38223;50.940;4.034;2022-07-22T01:10:15;17.60;99.90
52267;DHT22;38223;50.940;4.034;2022-07-22T01:12:58;17.70;99.90
52267;DHT22;38223;50.940;4.034;2022-07-22T01:15:26;17.70;99.90
52267;DHT22;38223;50.940;4.034;2022-07-22T01:17:58;17.60;99.90
52267;DHT22;38223;50.940;4.034;2022-07-22T01:20:31;17.60;99.90
52267;DHT22;38223;50.940;4.034;2022-07-22T01:23:03;17.60;99.90
52267;DHT22;38223;50.940;4.034;2022-07-22T01:25:36;17.50;99.90
52267;DHT22;38223;50.940;4.034;2022-07-22T01:28:06;17.40;99.90
52267;DHT22;38223;50.940;4.034;2022-07-22T01:30:40;17.40;99.90
52267;DHT22;38223;50.940;4.034;2022-07-22T01:33:10;17.30;99.90
52267;DHT22;38223;50.940;4.034;2022-07-22T01:35:43;17.30;99.90
52267;DHT22;38223;50.940;4.034;2022-07-22T01:38:19;17.20;99.90
52267;DHT22;38223;50.940;4.034;2022-07-22T01:40:51;17.10;99.90
52267;DHT22;38223;50.940;4.034;2022-07-22T01:43:25;17.00;99.90
52267;DHT22;38223;50.940;4.034;2022-07-22T01:45:58;17.10;99.90
52267;DHT22;38223;50.940;4.034;2022-07-22T01:48:30;17.10;99.90
52267;DHT22;38223;50.940;4.034;2022-07-22T01:51:02;17.00;99.90
52267;DHT22;38223;50.940;4.034;2022-07-22T01:53:33;16.90;99.90
52267;DHT22;38223;50.940;4.034;2022-07-22T01:56:10;17.00;99.90
52267;DHT22;38223;50.940;4.034;2022-07-22T01:58:39;17.00;99.90
52267;DHT22;38223;50.940;4.034;2022-07-22T02:01:13;16.90;99.90
52267;DHT22;38223;50.940;4.034;2022-07-22T02:03:42;17.00;99.90
52267;DHT22;38223;50.940;4.034;2022-07-22T02:06:23;17.00;99.90
52267;DHT22;38223;50.940;4.034;2022-07-22T02:08:54;17.00;99.90
52267;DHT22;38223;50.940;4.034;2022-07-22T02:11:42;17.10;99.90
52267;DHT22;38223;50.940;4.034;2022-07-22T02:14:09;17.00;99.90
52267;DHT22;38223;50.940;4.034;2022-07-22T02:16:43;17.00;99.90
52267;DHT22;38223;50.940;4.034;2022-07-22T02:19:17;17.10;99.90
52267;DHT22;38223;50.940;4.034;2022-07-22T02:21:52;17.10;99.90
52267;DHT22;38223;50.940;4.034;2022-07-22T02:24:22;17.00;99.90
52267;DHT22;38223;50.940;4.034;2022-07-22T02:26:57;17.10;99.90
52267;DHT22;38223;50.940;4.034;2022-07-22T02:29:27;17.00;99.90
52267;DHT22;38223;50.940;4.034;2022-07-22T02:32:02;17.10;99.90
52267;DHT22;38223;50.940;4.034;2022-07-22T02:34:32;17.10;99.90
52267;DHT22;38223;50.940;4.034;2022-07-22T02:37:03;17.00;99.90
52267;DHT22;38223;50.940;4.034;2022-07-22T02:39:38;17.00;99.90
52267;DHT22;38223;50.940;4.034;2022-07-22T02:42:08;17.10;99.90
52267;DHT22;38223;50.940;4.034;2022-07-22T02:44:42;17.30;99.90
52267;DHT22;38223;50.940;4.034;2022-07-22T02:47:12;17.50;99.90
52267;DHT22;38223;50.940;4.034;2022-07-22T02:49:45;17.60;99.90
52267;DHT22;38223;50.940;4.034;2022-07-22T02:52:18;17.70;99.90
52267;DHT22;38223;50.940;4.034;2022-07-22T02:54:50;17.70;99.90
52267;DHT22;38223;50.940;4.034;2022-07-22T02:57:24;17.50;99.90
52267;DHT22;38223;50.940;4.034;2022-07-22T02:59:53;17.30;99.90
52267;DHT22;38223;50.940;4.034;2022-07-22T03:02:24;17.10;99.90
52267;DHT22;38223;50.940;4.034;2022-07-22T03:04:55;17.10;99.90
52267;DHT22;38223;50.940;4.034;2022-07-22T03:07:26;17.00;99.90
52267;DHT22;38223;50.940;4.034;2022-07-22T03:10:01;17.00;99.90
52267;DHT22;38223;50.940;4.034;2022-07-22T03:12:33;17.00;99.90
52267;DHT22;38223;50.940;4.034;2022-07-22T03:15:08;17.10;99.90
52267;DHT22;38223;50.940;4.034;2022-07-22T03:17:43;17.20;99.90
52267;DHT22;38223;50.940;4.034;2022-07-22T03:20:22;17.20;99.90
52267;DHT22;38223;50.940;4.034;2022-07-22T03:22:52;17.30;99.90
52267;DHT22;38223;50.940;4.034;2022-07-22T03:25:25;17.40;99.90
52267;DHT22;38223;50.940;4.034;2022-07-22T03:27:57;17.40;99.90
52267;DHT22;38223;50.940;4.034;2022-07-22T03:30:30;17.40;99.90
52267;DHT22;38223;50.940;4.034;2022-07-22T03:33:01;17.50;99.90
52267;DHT22;38223;50.940;4.034;2022-07-22T03:35:31;17.40;99.90
52267;DHT22;38223;50.940;4.034;2022-07-22T03:38:03;17.30;99.90
52267;DHT22;38223;50.940;4.034;2022-07-22T03:40:40;17.30;99.90
52267;DHT22;38223;50.940;4.034;2022-07-22T03:43:09;17.20;99.90
52267;DHT22;38223;50.940;4.034;2022-07-22T03:45:43;17.40;99.90
52267;DHT22;38223;50.940;4.034;2022-07-22T03:48:15;17.70;99.90
52267;DHT22;38223;50.940;4.034;2022-07-22T03:50:44;17.60;99.90
52267;DHT22;38223;50.940;4.034;2022-07-22T03:53:23;17.40;99.90
52267;DHT22;38223;50.940;4.034;2022-07-22T03:55:57;17.20;99.90
52267;DHT22;38223;50.940;4.034;2022-07-22T03:58:30;17.20;99.90
52267;DHT22;38223;50.940;4.034;2022-07-22T04:01:04;17.20;99.90
52267;DHT22;38223;50.940;4.034;2022-07-22T04:03:40;17.20;99.90
52267;DHT22;38223;50.940;4.034;2022-07-22T04:06:18;17.00;99.90
52267;DHT22;38223;50.940;4.034;2022-07-22T04:08:47;16.80;99.90
52267;DHT22;38223;50.940;4.034;2022-07-22T04:11:17;16.70;99.90
52267;DHT22;38223;50.940;4.034;2022-07-22T04:13:53;16.60;99.90
52267;DHT22;38223;50.940;4.034;2022-07-22T04:16:25;16.70;99.90
52267;DHT22;38223;50.940;4.034;2022-07-22T04:19:00;16.80;99.90
52267;DHT22;38223;50.940;4.034;2022-07-22T04:21:31;16.90;99.90
52267;DHT22;38223;50.940;4.034;2022-07-22T04:23:59;16.90;99.90
52267;DHT22;38223;50.940;4.034;2022-07-22T04:26:32;17.00;99.90
52267;DHT22;38223;50.940;4.034;2022-07-22T04:29:06;17.00;99.90
52267;DHT22;38223;50.940;4.034;2022-07-22T04:31:43;17.10;99.90
52267;DHT22;38223;50.940;4.034;2022-07-22T04:34:12;17.20;99.90
52267;DHT22;38223;50.940;4.034;2022-07-22T04:36:48;17.20;99.90
52267;DHT22;38223;50.940;4.034;2022-07-22T04:39:21;17.20;99.90
52267;DHT22;38223;50.940;4.034;2022-07-22T04:42:11;17.20;99.90
52267;DHT22;38223;50.940;4.034;2022-07-22T04:47:30;17.30;99.90
52267;DHT22;38223;50.940;4.034;2022-07-22T04:50:21;17.30;99.90
52267;DHT22;38223;50.940;4.034;2022-07-22T04:52:50;17.20;99.90
52267;DHT22;38223;50.940;4.034;2022-07-22T04:55:26;17.20;99.90
52267;DHT22;38223;50.940;4.034;2022-07-22T04:57:54;17.20;99.90
52267;DHT22;38223;50.940;4.034;2022-07-22T05:00:31;17.20;99.90
52267;DHT22;38223;50.940;4.034;2022-07-22T05:03:05;17.30;99.90
52267;DHT22;38223;50.940;4.034;2022-07-22T05:05:36;17.50;99.90
52267;DHT22;38223;50.940;4.034;2022-07-22T05:08:08;17.50;99.90
52267;DHT22;38223;50.940;4.034;2022-07-22T05:10:40;17.60;99.90
52267;DHT22;38223;50.940;4.034;2022-07-22T05:13:14;17.50;99.90
52267;DHT22;38223;50.940;4.034;2022-07-22T05:15:46;17.60;99.90
52267;DHT22;38223;50.940;4.034;2022-07-22T05:18:17;17.70;99.90
52267;DHT22;38223;50.940;4.034;2022-07-22T05:20:53;17.80;99.90
52267;DHT22;38223;50.940;4.034;2022-07-22T05:23:25;17.80;99.90
52267;DHT22;38223;50.940;4.034;2022-07-22T05:25:57;17.60;99.90
52267;DHT22;38223;50.940;4.034;2022-07-22T05:28:29;17.70;99.90
52267;DHT22;38223;50.940;4.034;2022-07-22T05:31:00;17.90;99.90
52267;DHT22;38223;50.940;4.034;2022-07-22T05:33:36;17.90;99.90
52267;DHT22;38223;50.940;4.034;2022-07-22T05:36:06;18.00;99.90
52267;DHT22;38223;50.940;4.034;2022-07-22T05:38:37;18.10;99.90
52267;DHT22;38223;50.940;4.034;2022-07-22T05:41:14;18.20;99.90
52267;DHT22;38223;50.940;4.034;2022-07-22T05:43:50;18.20;99.90
52267;DHT22;38223;50.940;4.034;2022-07-22T05:46:19;18.30;99.90
52267;DHT22;38223;50.940;4.034;2022-07-22T05:48:49;18.30;99.90
52267;DHT22;38223;50.940;4.034;2022-07-22T05:51:23;18.40;99.90
52267;DHT22;38223;50.940;4.034;2022-07-22T05:53:59;18.30;99.90
52267;DHT22;38223;50.940;4.034;2022-07-22T05:56:31;18.30;99.90
52267;DHT22;38223;50.940;4.034;2022-07-22T05:59:08;18.10;99.90
52267;DHT22;38223;50.940;4.034;2022-07-22T06:01:37;17.80;99.90
52267;DHT22;38223;50.940;4.034;2022-07-22T06:04:12;17.90;99.90
52267;DHT22;38223;50.940;4.034;2022-07-22T06:06:40;18.00;99.90
52267;DHT22;38223;50.940;4.034;2022-07-22T06:09:17;18.20;99.90
52267;DHT22;38223;50.940;4.034;2022-07-22T06:11:48;18.30;99.90
52267;DHT22;38223;50.940;4.034;2022-07-22T06:14:22;18.40;99.90
52267;DHT22;38223;50.940;4.034;2022-07-22T06:16:51;18.20;99.90
52267;DHT22;38223;50.940;4.034;2022-07-22T06:19:22;18.10;99.90
52267;DHT22;38223;50.940;4.034;2022-07-22T06:21:53;18.30;99.90
52267;DHT22;38223;50.940;4.034;2022-07-22T06:24:25;18.30;99.90
52267;DHT22;38223;50.940;4.034;2022-07-22T06:26:59;18.20;99.90
52267;DHT22;38223;50.940;4.034;2022-07-22T06:29:33;18.10;99.90
52267;DHT22;38223;50.940;4.034;2022-07-22T06:32:03;18.20;99.90
52267;DHT22;38223;50.940;4.034;2022-07-22T06:34:43;18.20;99.90
52267;DHT22;38223;50.940;4.034;2022-07-22T06:37:13;18.30;99.90
52267;DHT22;38223;50.940;4.034;2022-07-22T06:39:44;18.30;99.90
52267;DHT22;38223;50.940;4.034;2022-07-22T06:42:15;18.30;99.90
52267;DHT22;38223;50.940;4.034;2022-07-22T06:44:47;18.20;99.90
52267;DHT22;38223;50.940;4.034;2022-07-22T06:47:17;18.20;99.90
52267;DHT22;38223;50.940;4.034;2022-07-22T06:49:48;18.10;99.90
52267;DHT22;38223;50.940;4.034;2022-07-22T06:52:25;18.20;99.90
52267;DHT22;38223;50.940;4.034;2022-07-22T06:54:59;18.20;99.90
52267;DHT22;38223;50.940;4.034;2022-07-22T06:57:31;18.20;99.90
52267;DHT22;38223;50.940;4.034;2022-07-22T07:00:09;18.20;99.90
52267;DHT22;38223;50.940;4.034;2022-07-22T07:02:39;18.30;99.90
52267;DHT22;38223;50.940;4.034;2022-07-22T07:05:12;18.50;99.90
52267;DHT22;38223;50.940;4.034;2022-07-22T07:07:44;18.60;99.90
52267;DHT22;38223;50.940;4.034;2022-07-22T07:10:16;18.60;99.90
52267;DHT22;38223;50.940;4.034;2022-07-22T07:12:45;18.70;99.90
52267;DHT22;38223;50.940;4.034;2022-07-22T07:15:17;18.70;99.90
52267;DHT22;38223;50.940;4.034;2022-07-22T07:17:49;18.60;99.90
52267;DHT22;38223;50.940;4.034;2022-07-22T07:20:22;18.70;99.90
52267;DHT22;38223;50.940;4.034;2022-07-22T07:22:51;18.80;99.90
52267;DHT22;38223;50.940;4.034;2022-07-22T07:25:27;19.10;99.90
52267;DHT22;38223;50.940;4.034;2022-07-22T07:27:57;19.00;99.90
52267;DHT22;38223;50.940;4.034;2022-07-22T07:30:30;18.90;99.90
52267;DHT22;38223;50.940;4.034;2022-07-22T07:33:01;18.90;99.90
52267;DHT22;38223;50.940;4.034;2022-07-22T07:35:35;18.90;99.90
52267;DHT22;38223;50.940;4.034;2022-07-22T07:38:04;19.00;99.90
52267;DHT22;38223;50.940;4.034;2022-07-22T07:40:36;19.10;99.90
52267;DHT22;38223;50.940;4.034;2022-07-22T07:43:12;19.10;99.90
52267;DHT22;38223;50.940;4.034;2022-07-22T07:45:42;18.90;99.90
52267;DHT22;38223;50.940;4.034;2022-07-22T07:48:15;18.80;99.90
52267;DHT22;38223;50.940;4.034;2022-07-22T07:50:47;18.80;99.90
52267;DHT22;38223;50.940;4.034;2022-07-22T07:53:26;18.90;99.90
52267;DHT22;38223;50.940;4.034;2022-07-22T07:56:00;19.00;99.90
52267;DHT22;38223;50.940;4.034;2022-07-22T07:58:39;19.30;99.90
52267;DHT22;38223;50.940;4.034;2022-07-22T08:01:14;19.50;99.90
52267;DHT22;38223;50.940;4.034;2022-07-22T08:03:55;19.30;99.90
52267;DHT22;38223;50.940;4.034;2022-07-22T08:06:27;19.20;99.90
52267;DHT22;38223;50.940;4.034;2022-07-22T08:08:59;19.20;99.90
52267;DHT22;38223;50.940;4.034;2022-07-22T08:11:31;19.30;99.90
52267;DHT22;38223;50.940;4.034;2022-07-22T08:14:14;19.20;99.90
52267;DHT22;38223;50.940;4.034;2022-07-22T08:16:47;19.40;99.90
52267;DHT22;38223;50.940;4.034;2022-07-22T08:19:20;19.70;99.90
52267;DHT22;38223;50.940;4.034;2022-07-22T08:21:53;19.80;99.90
52267;DHT22;38223;50.940;4.034;2022-07-22T08:24:25;19.70;99.90
52267;DHT22;38223;50.940;4.034;2022-07-22T08:26:58;19.70;99.90
52267;DHT22;38223;50.940;4.034;2022-07-22T08:29:32;19.70;99.90
52267;DHT22;38223;50.940;4.034;2022-07-22T08:32:11;19.60;99.90
52267;DHT22;38223;50.940;4.034;2022-07-22T08:34:43;19.70;99.90
52267;DHT22;38223;50.940;4.034;2022-07-22T08:37:17;19.70;99.90
52267;DHT22;38223;50.940;4.034;2022-07-22T08:39:49;19.70;99.90
52267;DHT22;38223;50.940;4.034;2022-07-22T08:42:23;19.70;99.90
52267;DHT22;38223;50.940;4.034;2022-07-22T08:44:56;19.80;99.90
52267;DHT22;38223;50.940;4.034;2022-07-22T08:47:36;19.70;99.90
52267;DHT22;38223;50.940;4.034;2022-07-22T08:50:07;19.80;99.90
52267;DHT22;38223;50.940;4.034;2022-07-22T08:52:40;20.00;99.90
52267;DHT22;38223;50.940;4.034;2022-07-22T08:55:11;19.90;99.90
52267;DHT22;38223;50.940;4.034;2022-07-22T08:57:47;19.90;99.90
52267;DHT22;38223;50.940;4.034;2022-07-22T09:00:46;19.80;99.90
52267;DHT22;38223;50.940;4.034;2022-07-22T09:03:24;19.90;99.90
52267;DHT22;38223;50.940;4.034;2022-07-22T09:05:59;20.00;99.90
52267;DHT22;38223;50.940;4.034;2022-07-22T09:08:28;20.20;99.90
52267;DHT22;38223;50.940;4.034;2022-07-22T09:11:14;20.40;99.90
52267;DHT22;38223;50.940;4.034;2022-07-22T09:13:32;20.60;99.90
52267;DHT22;38223;50.940;4.034;2022-07-22T09:16:08;20.60;99.90
52267;DHT22;38223;50.940;4.034;2022-07-22T09:18:50;20.30;99.90
52267;DHT22;38223;50.940;4.034;2022-07-22T09:21:23;20.10;99.90
52267;DHT22;38223;50.940;4.034;2022-07-22T09:23:57;20.40;99.90
52267;DHT22;38223;50.940;4.034;2022-07-22T09:26:37;20.80;99.90
52267;DHT22;38223;50.940;4.034;2022-07-22T09:29:08;20.70;99.90
52267;DHT22;38223;50.940;4.034;2022-07-22T09:31:40;20.70;99.90
52267;DHT22;38223;50.940;4.034;2022-07-22T09:34:25;20.60;99.90
52267;DHT22;38223;50.940;4.034;2022-07-22T09:36:56;20.60;99.90
52267;DHT22;38223;50.940;4.034;2022-07-22T09:39:34;20.80;99.90
52267;DHT22;38223;50.940;4.034;2022-07-22T09:42:08;21.10;99.90
52267;DHT22;38223;50.940;4.034;2022-07-22T09:44:39;20.70;99.90
52267;DHT22;38223;50.940;4.034;2022-07-22T09:47:28;20.80;99.90
52267;DHT22;38223;50.940;4.034;2022-07-22T09:50:02;20.80;99.90
52267;DHT22;38223;50.940;4.034;2022-07-22T09:52:33;20.90;99.90
52267;DHT22;38223;50.940;4.034;2022-07-22T09:55:05;20.80;99.90
52267;DHT22;38223;50.940;4.034;2022-07-22T09:57:38;20.60;99.90
52267;DHT22;38223;50.940;4.034;2022-07-22T10:00:11;20.60;99.90
52267;DHT22;38223;50.940;4.034;2022-07-22T10:02:47;20.90;99.90
52267;DHT22;38223;50.940;4.034;2022-07-22T10:05:18;21.00;99.90
52267;DHT22;38223;50.940;4.034;2022-07-22T10:07:49;21.00;99.90
52267;DHT22;38223;50.940;4.034;2022-07-22T10:10:23;20.90;99.90
52267;DHT22;38223;50.940;4.034;2022-07-22T10:12:57;20.70;99.90
52267;DHT22;38223;50.940;4.034;2022-07-22T10:15:30;20.80;99.90
52267;DHT22;38223;50.940;4.034;2022-07-22T10:18:06;20.90;99.90
52267;DHT22;38223;50.940;4.034;2022-07-22T10:20:37;21.00;99.90
52267;DHT22;38223;50.940;4.034;2022-07-22T10:23:10;20.90;99.90
52267;DHT22;38223;50.940;4.034;2022-07-22T10:25:56;21.00;99.90
52267;DHT22;38223;50.940;4.034;2022-07-22T10:28:34;21.00;99.90
52267;DHT22;38223;50.940;4.034;2022-07-22T10:31:23;21.20;99.90
52267;DHT22;38223;50.940;4.034;2022-07-22T10:33:56;21.10;99.90
52267;DHT22;38223;50.940;4.034;2022-07-22T10:36:33;21.00;99.90
52267;DHT22;38223;50.940;4.034;2022-07-22T10:39:06;21.30;99.90
52267;DHT22;38223;50.940;4.034;2022-07-22T10:41:44;21.30;99.90
52267;DHT22;38223;50.940;4.034;2022-07-22T10:44:27;21.20;99.90
52267;DHT22;38223;50.940;4.034;2022-07-22T10:46:54;21.30;99.90
52267;DHT22;38223;50.940;4.034;2022-07-22T10:49:28;21.80;99.90
52267;DHT22;38223;50.940;4.034;2022-07-22T10:52:12;21.80;99.90
52267;DHT22;38223;50.940;4.034;2022-07-22T10:55:21;21.80;99.90
52267;DHT22;38223;50.940;4.034;2022-07-22T10:57:51;21.60;99.90
52267;DHT22;38223;50.940;4.034;2022-07-22T11:00:23;21.50;99.90
52267;DHT22;38223;50.940;4.034;2022-07-22T11:02:55;21.40;99.90
52267;DHT22;38223;50.940;4.034;2022-07-22T11:05:27;21.50;99.90
52267;DHT22;38223;50.940;4.034;2022-07-22T11:07:59;21.40;99.90
52267;DHT22;38223;50.940;4.034;2022-07-22T11:10:31;21.40;99.90
52267;DHT22;38223;50.940;4.034;2022-07-22T11:12:59;21.30;99.90
52267;DHT22;38223;50.940;4.034;2022-07-22T11:15:34;21.30;99.90
52267;DHT22;38223;50.940;4.034;2022-07-22T11:18:08;21.50;99.90
52267;DHT22;38223;50.940;4.034;2022-07-22T11:20:39;21.50;99.90
52267;DHT22;38223;50.940;4.034;2022-07-22T11:23:11;21.60;99.90
52267;DHT22;38223;50.940;4.034;2022-07-22T11:26:01;21.80;99.90
52267;DHT22;38223;50.940;4.034;2022-07-22T11:28:31;21.80;99.90
52267;DHT22;38223;50.940;4.034;2022-07-22T11:31:08;21.90;99.90
52267;DHT22;38223;50.940;4.034;2022-07-22T11:33:39;21.90;99.90
52267;DHT22;38223;50.940;4.034;2022-07-22T11:36:18;21.90;99.90
52267;DHT22;38223;50.940;4.034;2022-07-22T11:38:52;21.70;99.90
52267;DHT22;38223;50.940;4.034;2022-07-22T11:41:27;21.70;99.90
52267;DHT22;38223;50.940;4.034;2022-07-22T11:43:58;22.00;99.90
52267;DHT22;38223;50.940;4.034;2022-07-22T11:46:44;22.10;99.90
52267;DHT22;38223;50.940;4.034;2022-07-22T11:49:11;21.90;99.90
52267;DHT22;38223;50.940;4.034;2022-07-22T11:51:43;21.80;99.90
52267;DHT22;38223;50.940;4.034;2022-07-22T11:54:14;21.80;99.90
52267;DHT22;38223;50.940;4.034;2022-07-22T11:56:51;21.80;99.90
52267;DHT22;38223;50.940;4.034;2022-07-22T11:59:21;21.90;99.90
52267;DHT22;38223;50.940;4.034;2022-07-22T12:01:50;22.00;99.90
52267;DHT22;38223;50.940;4.034;2022-07-22T12:04:22;22.20;99.90
52267;DHT22;38223;50.940;4.034;2022-07-22T12:06:57;22.40;99.90
52267;DHT22;38223;50.940;4.034;2022-07-22T12:09:31;22.40;99.90
52267;DHT22;38223;50.940;4.034;2022-07-22T12:12:04;22.50;99.90
52267;DHT22;38223;50.940;4.034;2022-07-22T12:14:43;22.30;99.90
52267;DHT22;38223;50.940;4.034;2022-07-22T12:17:16;22.30;99.90
52267;DHT22;38223;50.940;4.034;2022-07-22T12:19:46;22.40;99.90
52267;DHT22;38223;50.940;4.034;2022-07-22T12:22:22;22.30;99.90
52267;DHT22;38223;50.940;4.034;2022-07-22T12:24:59;22.30;99.90
52267;DHT22;38223;50.940;4.034;2022-07-22T12:27:34;22.40;99.90
52267;DHT22;38223;50.940;4.034;2022-07-22T12:30:15;22.60;99.90
52267;DHT22;38223;50.940;4.034;2022-07-22T12:32:51;22.60;99.90
52267;DHT22;38223;50.940;4.034;2022-07-22T12:35:18;22.80;99.90
52267;DHT22;38223;50.940;4.034;2022-07-22T12:37:54;22.70;99.90
52267;DHT22;38223;50.940;4.034;2022-07-22T12:40:22;22.80;99.90
52267;DHT22;38223;50.940;4.034;2022-07-22T12:43:05;22.80;99.90
52267;DHT22;38223;50.940;4.034;2022-07-22T12:45:41;22.60;99.90
52267;DHT22;38223;50.940;4.034;2022-07-22T12:48:14;22.50;99.90
52267;DHT22;38223;50.940;4.034;2022-07-22T12:50:57;22.50;99.90
52267;DHT22;38223;50.940;4.034;2022-07-22T12:53:33;22.50;99.90
52267;DHT22;38223;50.940;4.034;2022-07-22T12:56:04;22.40;99.90
52267;DHT22;38223;50.940;4.034;2022-07-22T12:58:38;22.60;99.90
52267;DHT22;38223;50.940;4.034;2022-07-22T13:04:02;22.60;99.90
52267;DHT22;38223;50.940;4.034;2022-07-22T13:06:35;22.90;99.90
52267;DHT22;38223;50.940;4.034;2022-07-22T13:09:04;22.70;99.90
52267;DHT22;38223;50.940;4.034;2022-07-22T13:11:33;22.50;99.90
52267;DHT22;38223;50.940;4.034;2022-07-22T13:14:08;22.50;99.90
52267;DHT22;38223;50.940;4.034;2022-07-22T13:16:42;22.70;99.90
52267;DHT22;38223;50.940;4.034;2022-07-22T13:19:15;22.80;99.90
52267;DHT22;38223;50.940;4.034;2022-07-22T13:21:44;22.80;99.90
52267;DHT22;38223;50.940;4.034;2022-07-22T13:24:16;22.80;99.90
52267;DHT22;38223;50.940;4.034;2022-07-22T13:26:49;22.70;99.90
52267;DHT22;38223;50.940;4.034;2022-07-22T13:29:17;22.60;99.90
52267;DHT22;38223;50.940;4.034;2022-07-22T13:31:53;22.60;99.90
52267;DHT22;38223;50.940;4.034;2022-07-22T13:34:23;22.60;99.90
52267;DHT22;38223;50.940;4.034;2022-07-22T13:36:56;22.70;99.90
52267;DHT22;38223;50.940;4.034;2022-07-22T13:39:31;22.70;99.90
52267;DHT22;38223;50.940;4.034;2022-07-22T13:42:06;23.00;99.90
52267;DHT22;38223;50.940;4.034;2022-07-22T13:44:38;22.90;99.90
52267;DHT22;38223;50.940;4.034;2022-07-22T13:47:11;22.90;99.90
52267;DHT22;38223;50.940;4.034;2022-07-22T13:49:45;23.10;99.90
52267;DHT22;38223;50.940;4.034;2022-07-22T13:52:25;22.90;99.90
52267;DHT22;38223;50.940;4.034;2022-07-22T13:54:57;22.80;99.90
52267;DHT22;38223;50.940;4.034;2022-07-22T13:57:31;22.80;99.90
52267;DHT22;38223;50.940;4.034;2022-07-22T14:00:00;22.90;99.90
52267;DHT22;38223;50.940;4.034;2022-07-22T14:02:36;22.70;99.90
52267;DHT22;38223;50.940;4.034;2022-07-22T14:05:06;22.70;99.90
52267;DHT22;38223;50.940;4.034;2022-07-22T14:07:41;22.70;99.90
52267;DHT22;38223;50.940;4.034;2022-07-22T14:10:14;22.60;99.90
52267;DHT22;38223;50.940;4.034;2022-07-22T14:12:44;22.50;99.90
52267;DHT22;38223;50.940;4.034;2022-07-22T14:15:12;22.70;99.90
52267;DHT22;38223;50.940;4.034;2022-07-22T14:17:44;23.10;99.90
52267;DHT22;38223;50.940;4.034;2022-07-22T14:20:21;23.10;99.90
52267;DHT22;38223;50.940;4.034;2022-07-22T14:22:52;23.00;99.90
52267;DHT22;38223;50.940;4.034;2022-07-22T14:25:28;22.90;99.90
52267;DHT22;38223;50.940;4.034;2022-07-22T14:27:59;22.70;99.90
52267;DHT22;38223;50.940;4.034;2022-07-22T14:30:33;22.70;99.90
52267;DHT22;38223;50.940;4.034;2022-07-22T14:33:03;22.60;99.90
52267;DHT22;38223;50.940;4.034;2022-07-22T14:35:34;22.80;99.90
52267;DHT22;38223;50.940;4.034;2022-07-22T14:38:05;22.80;99.90
52267;DHT22;38223;50.940;4.034;2022-07-22T14:40:42;22.80;99.90
52267;DHT22;38223;50.940;4.034;2022-07-22T14:43:11;22.80;99.90
52267;DHT22;38223;50.940;4.034;2022-07-22T14:45:47;22.80;99.90
52267;DHT22;38223;50.940;4.034;2022-07-22T14:48:15;22.80;99.90
52267;DHT22;38223;50.940;4.034;2022-07-22T14:50:52;22.80;99.90
52267;DHT22;38223;50.940;4.034;2022-07-22T14:53:20;22.70;99.90
52267;DHT22;38223;50.940;4.034;2022-07-22T14:55:51;22.90;99.90
52267;DHT22;38223;50.940;4.034;2022-07-22T14:58:23;22.90;99.90
52267;DHT22;38223;50.940;4.034;2022-07-22T15:00:59;22.80;99.90
52267;DHT22;38223;50.940;4.034;2022-07-22T15:03:48;22.70;99.90
52267;DHT22;38223;50.940;4.034;2022-07-22T15:06:21;22.60;99.90
52267;DHT22;38223;50.940;4.034;2022-07-22T15:08:58;22.80;99.90
52267;DHT22;38223;50.940;4.034;2022-07-22T15:11:27;22.80;99.90
52267;DHT22;38223;50.940;4.034;2022-07-22T15:13:59;22.90;99.90
52267;DHT22;38223;50.940;4.034;2022-07-22T15:16:31;22.90;99.90
52267;DHT22;38223;50.940;4.034;2022-07-22T15:19:02;22.80;99.90
52267;DHT22;38223;50.940;4.034;2022-07-22T15:21:36;22.70;99.90
52267;DHT22;38223;50.940;4.034;2022-07-22T15:24:06;22.60;99.90
52267;DHT22;38223;50.940;4.034;2022-07-22T15:26:40;22.70;99.90
52267;DHT22;38223;50.940;4.034;2022-07-22T15:29:13;22.90;99.90
52267;DHT22;38223;50.940;4.034;2022-07-22T15:31:46;22.90;99.90
52267;DHT22;38223;50.940;4.034;2022-07-22T15:34:18;22.80;99.90
52267;DHT22;38223;50.940;4.034;2022-07-22T15:36:52;22.70;99.90
52267;DHT22;38223;50.940;4.034;2022-07-22T15:39:24;22.70;99.90
52267;DHT22;38223;50.940;4.034;2022-07-22T15:41:56;22.70;99.90
52267;DHT22;38223;50.940;4.034;2022-07-22T15:44:25;22.60;99.90
52267;DHT22;38223;50.940;4.034;2022-07-22T15:46:56;22.50;99.90
52267;DHT22;38223;50.940;4.034;2022-07-22T15:49:31;22.50;99.90
52267;DHT22;38223;50.940;4.034;2022-07-22T15:54:49;22.50;99.90
52267;DHT22;38223;50.940;4.034;2022-07-22T15:57:20;22.30;99.90
52267;DHT22;38223;50.940;4.034;2022-07-22T16:00:08;22.30;99.90
52267;DHT22;38223;50.940;4.034;2022-07-22T16:02:41;22.10;99.90
52267;DHT22;38223;50.940;4.034;2022-07-22T16:05:10;22.00;99.90
52267;DHT22;38223;50.940;4.034;2022-07-22T16:07:45;21.80;99.90
52267;DHT22;38223;50.940;4.034;2022-07-22T16:10:15;21.40;99.90
52267;DHT22;38223;50.940;4.034;2022-07-22T16:12:51;21.10;99.90
52267;DHT22;38223;50.940;4.034;2022-07-22T16:15:22;21.00;99.90
52267;DHT22;38223;50.940;4.034;2022-07-22T16:17:55;20.90;99.90